createdAt,value
2023-02-03T00:02:24.473Z,-1.50
2023-02-03T00:04:53.485Z,-1.60
2023-02-03T00:07:22.535Z,-1.60
2023-02-03T00:09:51.653Z,-1.60
2023-02-03T00:12:20.615Z,-1.60
2023-02-03T00:14:51.096Z,-1.60
2023-02-03T00:17:20.174Z,-1.60
2023-02-03T00:19:49.895Z,-1.60
2023-02-03T00:22:18.966Z,-1.60
2023-02-03T00:24:48.235Z,-1.60
2023-02-03T00:27:17.207Z,-1.60
2023-02-03T00:29:46.933Z,-1.90
2023-02-03T00:32:20.238Z,-1.60
2023-02-03T00:34:49.326Z,-1.50
2023-02-03T00:37:18.679Z,-1.50
2023-02-03T00:39:47.873Z,-1.40
2023-02-03T00:42:17.365Z,-1.30
2023-02-03T00:44:46.307Z,-1.20
2023-02-03T00:47:16.794Z,-1.10
2023-02-03T00:49:46.069Z,-1.10
2023-02-03T00:52:15.095Z,-1.10
2023-02-03T00:54:45.504Z,-1.10
2023-02-03T00:57:15.218Z,-1.20
2023-02-03T00:59:44.916Z,-1.30
2023-02-03T01:02:13.968Z,-1.30
2023-02-03T01:04:45.674Z,-1.30
2023-02-03T01:07:21.361Z,-1.30
2023-02-03T01:09:50.359Z,-1.10
2023-02-03T01:12:19.278Z,-0.90
2023-02-03T01:14:48.627Z,-0.70
2023-02-03T01:17:17.602Z,-0.60
2023-02-03T01:19:49.301Z,-0.40
2023-02-03T01:22:18.372Z,-0.40
2023-02-03T01:24:47.458Z,-0.30
2023-02-03T01:27:17.172Z,-0.20
2023-02-03T01:29:47.638Z,-0.10
2023-02-03T01:32:16.773Z,0.00
2023-02-03T01:34:48.323Z,0.10
2023-02-03T01:37:18.669Z,0.20
2023-02-03T01:39:47.585Z,0.20
2023-02-03T01:42:17.568Z,0.20
2023-02-03T01:44:49.898Z,0.30
2023-02-03T01:47:24.786Z,0.40
2023-02-03T01:50:01.504Z,0.30
2023-02-03T01:52:31.750Z,0.40
2023-02-03T01:55:03.660Z,0.40
2023-02-03T01:57:35.972Z,0.40
2023-02-03T02:00:11.129Z,0.40
2023-02-03T02:02:42.153Z,0.50
2023-02-03T02:05:19.149Z,0.50
2023-02-03T02:07:49.608Z,0.60
2023-02-03T02:12:56.863Z,0.70
2023-02-03T02:15:34.132Z,0.60
2023-02-03T02:18:16.596Z,0.70
2023-02-03T02:21:15.230Z,0.80
2023-02-03T02:24:16.998Z,0.60
2023-02-03T02:27:02.346Z,0.50
2023-02-03T02:30:02.960Z,0.50
2023-02-03T02:32:43.012Z,0.60
2023-02-03T02:35:23.549Z,0.60
2023-02-03T02:38:00.108Z,0.60
2023-02-03T02:40:38.121Z,0.60
2023-02-03T02:43:13.176Z,0.60
2023-02-03T02:45:49.690Z,0.60
2023-02-03T02:48:24.823Z,0.60
2023-02-03T02:50:58.053Z,0.60
2023-02-03T02:53:30.600Z,0.60
2023-02-03T02:56:06.534Z,0.60
2023-02-03T02:58:37.622Z,0.60
2023-02-03T03:01:08.196Z,0.60
2023-02-03T03:03:41.059Z,0.60
2023-02-03T03:06:14.620Z,0.50
2023-02-03T03:08:48.124Z,0.60
2023-02-03T03:11:18.380Z,0.60
2023-02-03T03:13:51.770Z,0.50
2023-02-03T03:16:24.777Z,0.60
2023-02-03T03:18:59.180Z,0.50
2023-02-03T03:21:31.010Z,0.50
2023-02-03T03:24:05.672Z,0.60
2023-02-03T03:26:38.091Z,0.60
2023-02-03T03:29:13.669Z,0.70
2023-02-03T03:31:43.271Z,0.70
2023-02-03T03:34:14.946Z,0.80
2023-02-03T03:36:47.866Z,0.90
2023-02-03T03:39:24.528Z,0.90
2023-02-03T03:42:01.478Z,0.90
2023-02-03T03:44:35.027Z,1.00
2023-02-03T03:47:12.641Z,1.00
2023-02-03T03:49:46.302Z,1.00
2023-02-03T03:52:18.455Z,1.00
2023-02-03T03:54:49.350Z,1.00
2023-02-03T03:57:24.786Z,1.10
2023-02-03T03:59:54.111Z,1.00
2023-02-03T04:02:24.414Z,1.10
2023-02-03T04:04:56.490Z,1.10
2023-02-03T04:07:26.202Z,1.10
2023-02-03T04:09:55.370Z,1.10
2023-02-03T04:12:25.324Z,1.20
2023-02-03T04:14:54.248Z,1.10
2023-02-03T04:17:23.281Z,1.00
2023-02-03T04:19:53.703Z,1.00
2023-02-03T04:22:22.793Z,1.10
2023-02-03T04:24:51.658Z,1.10
2023-02-03T04:27:20.679Z,1.20
2023-02-03T04:29:51.221Z,1.10
2023-02-03T04:32:20.608Z,1.10
2023-02-03T04:34:49.493Z,1.00
2023-02-03T04:37:21.803Z,1.00
2023-02-03T04:39:52.388Z,0.90
2023-02-03T04:42:21.284Z,1.00
2023-02-03T04:44:50.299Z,0.90
2023-02-03T04:47:20.029Z,0.90
2023-02-03T04:49:49.256Z,1.00
2023-02-03T04:52:19.578Z,1.00
2023-02-03T04:54:48.582Z,1.00
2023-02-03T04:57:17.439Z,1.00
2023-02-03T04:59:46.413Z,1.00
2023-02-03T05:02:15.236Z,1.00
2023-02-03T05:04:44.105Z,1.00
2023-02-03T05:07:13.148Z,1.00
2023-02-03T05:09:43.442Z,1.00
2023-02-03T05:12:12.386Z,1.10
2023-02-03T05:14:41.347Z,1.10
2023-02-03T05:17:10.316Z,1.10
2023-02-03T05:19:39.165Z,1.00
2023-02-03T05:22:07.998Z,0.90
2023-02-03T05:24:36.916Z,1.00
2023-02-03T05:27:07.383Z,1.00
2023-02-03T05:29:36.281Z,1.10
2023-02-03T05:32:05.683Z,1.10
2023-02-03T05:34:34.521Z,1.10
2023-02-03T05:37:04.217Z,1.00
2023-02-03T05:39:33.293Z,1.00
2023-02-03T05:42:01.206Z,1.10
2023-02-03T05:44:31.822Z,1.10
2023-02-03T05:47:01.955Z,1.20
2023-02-03T05:49:30.835Z,1.20
2023-02-03T05:51:59.793Z,1.20
2023-02-03T05:54:28.659Z,1.10
2023-02-03T05:56:57.551Z,1.00
2023-02-03T05:59:26.404Z,0.90
2023-02-03T06:01:56.832Z,0.90
2023-02-03T06:04:25.692Z,0.90
2023-02-03T06:06:54.664Z,1.00
2023-02-03T06:09:23.471Z,0.80
2023-02-03T06:11:52.432Z,0.70
2023-02-03T06:14:21.513Z,0.50
2023-02-03T06:16:50.480Z,0.40
2023-02-03T06:19:20.961Z,0.30
2023-02-03T06:21:50.048Z,0.40
2023-02-03T06:24:18.887Z,0.50
2023-02-03T06:26:48.121Z,0.50
2023-02-03T06:29:17.046Z,0.50
2023-02-03T06:31:46.123Z,0.60
2023-02-03T06:34:15.160Z,0.60
2023-02-03T06:36:45.605Z,0.60
2023-02-03T06:39:14.571Z,0.60
2023-02-03T06:41:43.517Z,0.60
2023-02-03T06:44:12.400Z,0.60
2023-02-03T06:46:41.324Z,0.60
2023-02-03T06:49:10.197Z,0.50
2023-02-03T06:51:39.193Z,0.40
2023-02-03T06:54:09.466Z,0.50
2023-02-03T06:56:38.750Z,0.60
2023-02-03T06:59:09.049Z,0.70
2023-02-03T07:01:38.147Z,0.70
2023-02-03T07:04:07.464Z,0.80
2023-02-03T07:06:36.598Z,0.80
2023-02-03T07:09:06.969Z,0.80
2023-02-03T07:11:37.376Z,0.80
2023-02-03T07:14:06.371Z,0.80
2023-02-03T07:16:37.746Z,0.80
2023-02-03T07:19:08.382Z,0.80
2023-02-03T07:21:37.262Z,0.80
2023-02-03T07:24:06.792Z,0.80
2023-02-03T07:26:37.129Z,0.80
2023-02-03T07:29:06.080Z,0.80
2023-02-03T07:31:35.975Z,1.00
2023-02-03T07:34:04.902Z,1.10
2023-02-03T07:36:33.757Z,1.20
2023-02-03T07:39:02.635Z,1.20
2023-02-03T07:41:31.503Z,1.20
2023-02-03T07:44:02.023Z,1.30
2023-02-03T07:46:30.952Z,1.20
2023-02-03T07:48:59.817Z,1.40
2023-02-03T07:51:28.642Z,1.60
2023-02-03T07:53:58.757Z,1.70
2023-02-03T07:56:27.653Z,1.80
2023-02-03T07:58:56.565Z,1.90
2023-02-03T08:01:27.604Z,2.00
2023-02-03T08:03:56.749Z,2.00
2023-02-03T08:06:25.678Z,2.10
2023-02-03T08:08:55.464Z,2.10
2023-02-03T08:11:24.345Z,2.00
2023-02-03T08:13:53.276Z,2.10
2023-02-03T08:16:22.251Z,2.20
2023-02-03T08:18:52.727Z,2.20
2023-02-03T08:21:21.725Z,2.30
2023-02-03T08:23:50.632Z,2.30
2023-02-03T08:26:20.548Z,2.50
2023-02-03T08:28:51.382Z,2.60
2023-02-03T08:31:20.646Z,2.60
2023-02-03T08:33:49.739Z,2.70
2023-02-03T08:36:20.127Z,2.70
2023-02-03T08:38:49.343Z,2.90
2023-02-03T08:41:20.249Z,2.70
2023-02-03T08:43:49.748Z,2.80
2023-02-03T08:46:18.688Z,2.70
2023-02-03T08:48:47.669Z,2.50
2023-02-03T08:51:19.741Z,2.70
2023-02-03T08:53:48.629Z,2.70
2023-02-03T08:56:17.524Z,2.50
2023-02-03T08:58:46.569Z,2.60
2023-02-03T09:01:17.467Z,2.50
2023-02-03T09:03:46.844Z,2.30
2023-02-03T09:06:16.972Z,2.00
2023-02-03T09:08:48.092Z,1.80
2023-02-03T09:11:18.865Z,1.70
2023-02-03T09:13:48.993Z,1.50
2023-02-03T09:16:19.710Z,1.50
2023-02-03T09:18:55.630Z,1.50
2023-02-03T09:21:36.693Z,1.50
2023-02-03T09:24:17.573Z,1.60
2023-02-03T09:26:46.622Z,1.60
2023-02-03T09:29:16.051Z,1.70
2023-02-03T09:31:47.152Z,1.60
2023-02-03T09:34:16.290Z,1.90
2023-02-03T09:36:45.228Z,2.10
2023-02-03T09:39:15.831Z,2.20
2023-02-03T09:42:11.744Z,2.10
2023-02-03T09:44:46.785Z,2.00
2023-02-03T09:47:20.135Z,2.10
2023-02-03T09:49:52.684Z,2.10
2023-02-03T09:52:24.444Z,2.20
2023-02-03T09:55:03.463Z,2.40
2023-02-03T09:57:37.041Z,2.30
2023-02-03T10:00:18.463Z,2.60
2023-02-03T10:02:57.787Z,2.50
2023-02-03T10:05:41.749Z,2.80
2023-02-03T10:08:21.990Z,3.00
2023-02-03T10:11:11.056Z,3.20
2023-02-03T10:13:48.861Z,3.10
2023-02-03T10:16:44.767Z,3.00
2023-02-03T10:19:17.845Z,3.10
2023-02-03T10:21:51.457Z,3.10
2023-02-03T10:24:27.203Z,3.10
2023-02-03T10:26:58.704Z,3.10
2023-02-03T10:29:34.476Z,3.20
2023-02-03T10:32:04.070Z,3.30
2023-02-03T10:34:33.228Z,3.30
2023-02-03T10:37:08.359Z,3.10
2023-02-03T10:39:44.835Z,3.20
2023-02-03T10:42:15.787Z,3.10
2023-02-03T10:44:48.864Z,3.00
2023-02-03T10:47:26.599Z,2.90
2023-02-03T10:49:57.867Z,2.90
2023-02-03T10:52:30.171Z,2.80
2023-02-03T10:55:08.569Z,2.80
2023-02-03T10:57:40.845Z,2.70
2023-02-03T11:00:24.979Z,2.80
2023-02-03T11:02:58.652Z,2.80
2023-02-03T11:05:27.892Z,3.00
2023-02-03T11:07:57.112Z,2.90
2023-02-03T11:10:36.248Z,3.00
2023-02-03T11:13:20.783Z,2.90
2023-02-03T11:15:59.135Z,3.00
2023-02-03T11:18:52.895Z,3.20
2023-02-03T11:21:24.072Z,3.10
2023-02-03T11:23:57.918Z,3.00
2023-02-03T11:26:30.635Z,2.90
2023-02-03T11:29:03.533Z,2.90
2023-02-03T11:31:36.046Z,2.70
2023-02-03T11:34:07.651Z,2.80
2023-02-03T11:36:37.707Z,2.90
2023-02-03T11:39:28.856Z,3.20
2023-02-03T11:41:58.624Z,3.30
2023-02-03T11:44:31.676Z,3.10
2023-02-03T11:47:03.378Z,3.00
2023-02-03T11:50:08.627Z,3.00
2023-02-03T11:52:56.030Z,2.80
2023-02-03T11:55:40.831Z,2.70
2023-02-03T11:58:28.720Z,2.90
2023-02-03T12:01:09.610Z,3.10
2023-02-03T12:04:00.040Z,3.10
2023-02-03T12:06:56.819Z,3.40
2023-02-03T12:09:33.512Z,3.40
2023-02-03T12:12:37.707Z,3.20
2023-02-03T12:15:25.180Z,3.10
2023-02-03T12:18:09.988Z,2.90
2023-02-03T12:21:02.431Z,3.00
2023-02-03T12:23:42.102Z,3.00
2023-02-03T12:26:22.456Z,3.00
2023-02-03T12:29:00.471Z,3.00
2023-02-03T12:31:37.309Z,3.00
2023-02-03T12:34:15.686Z,2.60
2023-02-03T12:36:50.444Z,2.70
2023-02-03T12:39:25.861Z,2.60
2023-02-03T12:42:00.322Z,2.70
2023-02-03T12:44:37.341Z,2.50
2023-02-03T12:47:14.849Z,2.60
2023-02-03T12:49:50.281Z,2.80
2023-02-03T12:52:27.033Z,2.80
2023-02-03T12:55:02.952Z,2.90
2023-02-03T12:57:36.967Z,2.80
2023-02-03T13:00:19.950Z,3.00
2023-02-03T13:03:05.420Z,3.10
2023-02-03T13:05:44.063Z,3.20
2023-02-03T13:08:22.293Z,3.10
2023-02-03T13:10:54.691Z,3.00
2023-02-03T13:13:33.149Z,3.00
2023-02-03T13:16:04.777Z,2.90
2023-02-03T13:18:36.902Z,3.00
2023-02-03T13:21:07.545Z,3.00
2023-02-03T13:23:36.610Z,2.80
2023-02-03T13:26:38.167Z,2.70
2023-02-03T13:29:18.548Z,2.70
2023-02-03T13:32:00.676Z,2.70
2023-02-03T13:34:53.441Z,2.60
2023-02-03T13:37:48.280Z,2.50
2023-02-03T13:40:39.757Z,2.20
2023-02-03T13:43:23.008Z,2.00
2023-02-03T13:46:02.029Z,2.00
2023-02-03T13:48:33.503Z,2.10
2023-02-03T13:51:08.789Z,2.10
2023-02-03T13:53:41.648Z,2.10
2023-02-03T13:56:20.939Z,2.10
2023-02-03T13:59:02.587Z,2.10
2023-02-03T14:01:36.028Z,2.10
2023-02-03T14:04:06.830Z,2.00
2023-02-03T14:06:57.181Z,1.90
2023-02-03T14:09:40.497Z,2.00
2023-02-03T14:12:43.918Z,1.90
2023-02-03T14:15:44.914Z,2.00
2023-02-03T14:18:45.236Z,1.90
2023-02-03T14:21:23.367Z,1.90
2023-02-03T14:24:01.120Z,1.90
2023-02-03T14:26:41.819Z,1.90
2023-02-03T14:29:24.560Z,1.90
2023-02-03T14:32:01.957Z,1.90
2023-02-03T14:34:37.191Z,2.00
2023-02-03T14:37:17.310Z,1.90
2023-02-03T14:40:21.227Z,1.80
2023-02-03T14:43:29.525Z,1.60
2023-02-03T14:46:20.807Z,1.60
2023-02-03T14:49:07.648Z,1.50
2023-02-03T14:51:50.112Z,1.40
2023-02-03T14:54:31.133Z,1.20
2023-02-03T14:57:19.992Z,1.10
2023-02-03T14:59:53.454Z,1.00
2023-02-03T15:02:26.093Z,0.80
2023-02-03T15:05:15.558Z,0.70
2023-02-03T15:07:46.802Z,0.70
2023-02-03T15:10:18.389Z,0.50
2023-02-03T15:12:49.715Z,0.50
2023-02-03T15:15:27.059Z,0.40
2023-02-03T15:17:57.786Z,0.30
2023-02-03T15:20:33.269Z,0.30
2023-02-03T15:23:02.902Z,0.30
2023-02-03T15:25:33.550Z,0.20
2023-02-03T15:28:20.261Z,0.10
2023-02-03T15:30:54.687Z,0.10
2023-02-03T15:33:24.746Z,0.10
2023-02-03T15:35:57.170Z,0.10
2023-02-03T15:38:31.048Z,0.10
2023-02-03T15:41:00.153Z,0.10
2023-02-03T15:43:34.351Z,0.10
2023-02-03T15:46:11.998Z,0.10
2023-02-03T15:48:44.331Z,0.10
2023-02-03T15:51:16.921Z,0.00
2023-02-03T15:53:54.187Z,0.00
2023-02-03T15:56:31.143Z,0.00
2023-02-03T15:59:00.319Z,0.00
2023-02-03T16:01:31.228Z,0.00
2023-02-03T16:04:01.068Z,-0.10
2023-02-03T16:06:36.221Z,-0.10
2023-02-03T16:09:07.312Z,-0.10
2023-02-03T16:11:37.898Z,-0.10
2023-02-03T16:14:08.424Z,-0.10
2023-02-03T16:16:47.203Z,-0.10
2023-02-03T16:19:25.053Z,-0.10
2023-02-03T16:21:56.544Z,-0.10
2023-02-03T16:24:41.181Z,-0.10
2023-02-03T16:27:33.241Z,-0.10
2023-02-03T16:30:41.871Z,-0.20
2023-02-03T16:33:35.781Z,-0.20
2023-02-03T16:36:30.403Z,-0.20
2023-02-03T16:39:20.211Z,-0.20
2023-02-03T16:42:06.584Z,-0.20
2023-02-03T16:44:53.071Z,-0.10
2023-02-03T16:47:45.356Z,-0.10
2023-02-03T16:50:38.601Z,-0.10
2023-02-03T16:53:13.889Z,0.00
2023-02-03T16:55:43.996Z,0.00
2023-02-03T16:58:13.306Z,0.00
2023-02-03T17:00:43.001Z,0.00
2023-02-03T17:03:14.572Z,0.00
2023-02-03T17:05:47.276Z,0.00
2023-02-03T17:08:17.367Z,0.00
2023-02-03T17:10:48.413Z,0.00
2023-02-03T17:13:18.638Z,0.10
2023-02-03T17:15:50.431Z,0.10
2023-02-03T17:18:20.466Z,0.10
2023-02-03T17:20:51.295Z,0.10
2023-02-03T17:23:20.253Z,0.00
2023-02-03T17:25:52.722Z,0.00
2023-02-03T17:28:22.064Z,0.00
2023-02-03T17:30:59.042Z,0.00
2023-02-03T17:33:28.533Z,0.00
2023-02-03T17:36:08.660Z,0.00
2023-02-03T17:55:24.467Z,0.00
2023-02-03T17:57:55.724Z,0.00
2023-02-03T18:00:25.609Z,0.00
2023-02-03T18:02:56.447Z,0.00
2023-02-03T18:05:27.188Z,-0.10
2023-02-03T18:08:00.816Z,0.00
2023-02-03T18:10:35.519Z,0.00
2023-02-03T18:13:05.708Z,0.00
2023-02-03T18:15:35.236Z,0.00
2023-02-03T18:18:08.583Z,0.00
2023-02-03T18:20:39.243Z,0.00
2023-02-03T18:23:12.196Z,0.00
2023-02-03T18:25:41.754Z,0.00
2023-02-03T18:28:11.926Z,-0.10
2023-02-03T18:30:43.085Z,-0.10
2023-02-03T18:33:13.944Z,-0.10
2023-02-03T18:35:47.938Z,-0.10
2023-02-03T18:38:20.642Z,-0.10
2023-02-03T18:40:59.369Z,-0.10
2023-02-03T18:43:30.289Z,-0.10
2023-02-03T18:46:00.605Z,-0.10
2023-02-03T18:48:31.146Z,-0.10
2023-02-03T18:51:04.334Z,-0.10
2023-02-03T18:53:36.432Z,-0.10
2023-02-03T18:56:09.681Z,-0.20
2023-02-03T18:58:41.926Z,-0.10
2023-02-03T19:01:12.621Z,-0.20
2023-02-03T19:03:43.556Z,-0.20
2023-02-03T19:06:14.291Z,-0.10
2023-02-03T19:08:47.049Z,-0.10
2023-02-03T19:11:18.534Z,-0.20
2023-02-03T19:13:48.597Z,-0.20
2023-02-03T19:16:20.732Z,-0.10
2023-02-03T19:18:53.462Z,-0.20
2023-02-03T19:21:25.090Z,-0.20
2023-02-03T19:24:01.595Z,-0.20
2023-02-03T19:26:38.608Z,-0.20
2023-02-03T19:29:09.826Z,-0.20
2023-02-03T19:31:40.830Z,-0.30
2023-02-03T19:34:11.816Z,-0.20
2023-02-03T19:36:43.208Z,-0.30
2023-02-03T19:39:14.808Z,-0.30
2023-02-03T19:41:45.057Z,-0.30
2023-02-03T19:44:18.168Z,-0.30
2023-02-03T19:46:49.404Z,-0.40
2023-02-03T19:49:22.570Z,-0.40
2023-02-03T19:51:55.172Z,-0.40
2023-02-03T19:54:29.102Z,-0.40
2023-02-03T19:57:01.813Z,-0.50
2023-02-03T19:59:38.673Z,-0.50
2023-02-03T20:02:14.032Z,-0.50
2023-02-03T20:04:45.857Z,-0.50
2023-02-03T20:07:18.577Z,-0.50
2023-02-03T20:09:51.809Z,-0.50
2023-02-03T20:12:24.982Z,-0.50
2023-02-03T20:14:58.735Z,-0.50
2023-02-03T20:17:32.047Z,-0.40
2023-02-03T20:20:05.636Z,-0.40
2023-02-03T20:22:40.786Z,-0.40
2023-02-03T20:25:17.161Z,-0.40
2023-02-03T20:27:50.966Z,-0.40
2023-02-03T20:30:22.110Z,-0.40
2023-02-03T20:32:53.185Z,-0.40
2023-02-03T20:35:29.570Z,-0.30
2023-02-03T20:37:59.850Z,-0.30
2023-02-03T20:40:37.344Z,-0.30
2023-02-03T20:43:18.984Z,-0.30
2023-02-03T20:45:50.967Z,-0.40
2023-02-03T20:48:23.377Z,-0.30
2023-02-03T20:50:56.198Z,-0.40
2023-02-03T20:53:28.467Z,-0.40
2023-02-03T20:56:07.293Z,-0.40
2023-02-03T20:58:39.420Z,-0.30
2023-02-03T21:01:20.427Z,-0.40
2023-02-03T21:04:16.345Z,-0.40
2023-02-03T21:06:47.228Z,-0.40
2023-02-03T21:09:20.279Z,-0.30
2023-02-03T21:11:55.793Z,-0.40
2023-02-03T21:14:28.913Z,-0.40
2023-02-03T21:16:59.428Z,-0.40
2023-02-03T21:19:33.591Z,-0.40
2023-02-03T21:22:09.791Z,-0.30
2023-02-03T21:24:45.470Z,-0.40
2023-02-03T21:27:28.389Z,-0.30
2023-02-03T21:29:59.794Z,-0.30
2023-02-03T21:32:38.842Z,-0.30
2023-02-03T21:35:26.106Z,-0.30
2023-02-03T21:38:02.815Z,-0.30
2023-02-03T21:40:33.740Z,-0.20
2023-02-03T21:43:05.555Z,-0.20
2023-02-03T21:45:43.837Z,-0.20
2023-02-03T21:48:39.351Z,-0.20
2023-02-03T21:51:18.123Z,-0.20
2023-02-03T21:53:53.512Z,-0.10
2023-02-03T21:56:31.029Z,-0.10
2023-02-03T21:59:04.152Z,-0.10
2023-02-03T22:01:39.240Z,0.00
2023-02-03T22:04:09.189Z,0.00
2023-02-03T22:06:45.426Z,0.00
2023-02-03T22:09:15.780Z,0.10
2023-02-03T22:11:45.108Z,0.00
2023-02-03T22:14:16.839Z,0.10
2023-02-03T22:16:46.471Z,0.10
2023-02-03T22:19:17.796Z,0.10
2023-02-03T22:21:49.050Z,0.10
2023-02-03T22:24:18.072Z,0.10
2023-02-03T22:26:47.072Z,0.10
2023-02-03T22:29:17.560Z,0.20
2023-02-03T22:31:46.637Z,0.20
2023-02-03T22:34:15.857Z,0.20
2023-02-03T22:36:44.820Z,0.20
2023-02-03T22:39:14.817Z,0.20
2023-02-03T22:41:43.718Z,0.20
2023-02-03T22:44:16.398Z,0.30
2023-02-03T22:46:46.760Z,0.30
2023-02-03T22:49:15.684Z,0.30
2023-02-03T22:51:44.792Z,0.20
2023-02-03T22:54:13.656Z,0.20
2023-02-03T22:56:42.527Z,0.30
2023-02-03T22:59:11.513Z,0.30
2023-02-03T23:01:40.445Z,0.20
2023-02-03T23:04:10.783Z,0.30
2023-02-03T23:06:39.768Z,0.20
2023-02-03T23:09:08.751Z,0.20
2023-02-03T23:11:37.691Z,0.20
2023-02-03T23:14:06.766Z,0.10
2023-02-03T23:16:35.735Z,0.20
2023-02-03T23:19:04.668Z,0.20
2023-02-03T23:21:35.176Z,0.20
2023-02-03T23:24:04.132Z,0.20
2023-02-03T23:26:33.334Z,0.10
2023-02-03T23:29:02.521Z,0.10
2023-02-03T23:31:31.512Z,0.10
2023-02-03T23:34:17.112Z,0.20
2023-02-03T23:36:47.591Z,0.10
2023-02-03T23:39:16.568Z,0.10
2023-02-03T23:41:45.573Z,0.10
2023-02-03T23:44:14.394Z,0.10
2023-02-03T23:46:43.345Z,0.10
2023-02-03T23:49:12.381Z,0.10
2023-02-03T23:51:41.260Z,0.10
2023-02-03T23:54:11.833Z,0.20
2023-02-03T23:56:40.810Z,0.10
2023-02-03T23:59:09.813Z,0.10
